createdAt,value
2023-04-16T00:00:29.793Z,62.81
2023-04-16T00:02:56.125Z,64.08
2023-04-16T00:05:22.434Z,64.45
2023-04-16T00:07:48.532Z,64.37
2023-04-16T00:10:14.667Z,64.59
2023-04-16T00:12:40.783Z,64.40
2023-04-16T00:15:06.887Z,62.80
2023-04-16T00:17:35.317Z,63.61
2023-04-16T00:20:01.476Z,63.36
2023-04-16T00:22:27.578Z,63.71
2023-04-16T00:24:53.673Z,64.03
2023-04-16T00:27:19.774Z,65.01
2023-04-16T00:29:45.893Z,66.17
2023-04-16T00:32:11.985Z,65.15
2023-04-16T00:34:38.106Z,63.07
2023-04-16T00:37:04.206Z,65.32
2023-04-16T00:39:30.305Z,65.38
2023-04-16T00:41:56.407Z,64.48
2023-04-16T00:44:22.491Z,64.79
2023-04-16T00:46:48.600Z,64.99
2023-04-16T00:49:14.736Z,66.96
2023-04-16T00:51:40.841Z,64.70
2023-04-16T00:54:06.926Z,64.46
2023-04-16T00:56:33.049Z,63.51
2023-04-16T00:58:59.152Z,63.87
2023-04-16T01:01:25.272Z,63.89
2023-04-16T01:03:51.553Z,64.31
2023-04-16T01:06:17.806Z,63.24
2023-04-16T01:08:43.899Z,63.38
2023-04-16T01:11:10.016Z,63.71
2023-04-16T01:13:36.130Z,65.16
2023-04-16T01:16:02.348Z,65.35
2023-04-16T01:18:28.530Z,64.03
2023-04-16T01:20:54.714Z,63.72
2023-04-16T01:23:20.825Z,63.89
2023-04-16T01:25:47.049Z,63.93
2023-04-16T01:28:13.159Z,62.13
2023-04-16T01:30:39.267Z,62.49
2023-04-16T01:33:05.418Z,63.70
2023-04-16T01:35:31.513Z,64.74
2023-04-16T01:37:57.621Z,66.65
2023-04-16T01:40:23.767Z,68.04
2023-04-16T01:42:49.862Z,68.22
2023-04-16T01:45:15.989Z,66.55
2023-04-16T01:47:42.152Z,65.53
2023-04-16T01:50:08.276Z,64.88
2023-04-16T01:52:34.432Z,64.53
2023-04-16T01:55:00.620Z,64.00
2023-04-16T01:57:26.697Z,64.02
2023-04-16T01:59:52.819Z,64.23
2023-04-16T02:02:19.024Z,63.37
2023-04-16T02:04:45.169Z,63.47
2023-04-16T02:07:11.279Z,64.15
2023-04-16T02:09:37.409Z,66.09
2023-04-16T02:12:03.512Z,66.41
2023-04-16T02:14:29.603Z,66.60
2023-04-16T02:16:55.740Z,64.76
2023-04-16T02:19:21.865Z,64.58
2023-04-16T02:21:48.084Z,64.34
2023-04-16T02:24:14.207Z,64.15
2023-04-16T02:26:40.370Z,64.02
2023-04-16T02:29:06.563Z,64.03
2023-04-16T02:31:32.768Z,63.64
2023-04-16T02:33:58.925Z,63.71
2023-04-16T02:36:25.006Z,64.09
2023-04-16T02:38:51.125Z,63.43
2023-04-16T02:41:17.208Z,63.94
2023-04-16T02:43:43.302Z,63.69
2023-04-16T02:46:09.458Z,64.36
2023-04-16T02:48:35.581Z,63.77
2023-04-16T02:51:01.695Z,63.52
2023-04-16T02:53:27.821Z,63.79
2023-04-16T02:55:53.921Z,64.11
2023-04-16T02:58:20.047Z,63.87
2023-04-16T03:00:46.191Z,62.99
2023-04-16T03:03:12.333Z,62.89
2023-04-16T03:05:39.752Z,63.30
2023-04-16T03:08:06.465Z,62.50
2023-04-16T03:10:32.603Z,62.23
2023-04-16T03:12:58.708Z,63.09
2023-04-16T03:15:24.812Z,64.08
2023-04-16T03:17:50.979Z,63.22
2023-04-16T03:20:17.165Z,63.54
2023-04-16T03:22:43.354Z,63.52
2023-04-16T03:25:09.435Z,63.77
2023-04-16T03:27:35.520Z,63.32
2023-04-16T03:30:01.647Z,63.99
2023-04-16T03:32:27.812Z,63.35
2023-04-16T03:34:53.925Z,64.06
2023-04-16T03:37:20.030Z,64.10
2023-04-16T03:39:46.139Z,63.64
2023-04-16T03:42:12.250Z,64.11
2023-04-16T03:44:38.390Z,64.08
2023-04-16T03:47:04.515Z,63.84
2023-04-16T03:49:30.612Z,63.47
2023-04-16T03:51:56.701Z,63.70
2023-04-16T03:54:23.132Z,63.82
2023-04-16T03:56:49.310Z,63.47
2023-04-16T03:59:15.407Z,63.49
2023-04-16T04:01:41.526Z,63.87
2023-04-16T04:04:07.714Z,64.64
2023-04-16T04:06:33.845Z,64.68
2023-04-16T04:08:59.963Z,65.04
2023-04-16T04:11:26.071Z,64.95
2023-04-16T04:13:52.172Z,64.72
2023-04-16T04:16:18.385Z,64.19
2023-04-16T04:18:44.654Z,63.80
2023-04-16T04:21:10.805Z,63.67
2023-04-16T04:23:36.933Z,63.37
2023-04-16T04:26:03.080Z,63.50
2023-04-16T04:28:29.172Z,63.68
2023-04-16T04:30:55.266Z,63.91
2023-04-16T04:33:21.408Z,64.15
2023-04-16T04:35:47.521Z,64.70
2023-04-16T04:38:16.047Z,64.96
2023-04-16T04:40:42.355Z,64.86
2023-04-16T04:43:08.470Z,64.77
2023-04-16T04:45:34.627Z,64.87
2023-04-16T04:48:00.815Z,65.35
2023-04-16T04:50:26.951Z,64.95
2023-04-16T04:52:53.047Z,66.12
2023-04-16T04:55:19.159Z,66.70
2023-04-16T04:57:45.249Z,66.61
2023-04-16T05:00:11.390Z,65.13
2023-04-16T05:02:37.629Z,64.52
2023-04-16T05:05:03.825Z,63.86
2023-04-16T05:07:29.981Z,63.70
2023-04-16T05:09:56.097Z,62.82
2023-04-16T05:12:22.228Z,62.31
2023-04-16T05:14:48.330Z,61.41
2023-04-16T05:17:14.430Z,61.89
2023-04-16T05:19:40.523Z,61.90
2023-04-16T05:22:06.645Z,62.64
2023-04-16T05:24:32.758Z,62.76
2023-04-16T05:26:58.851Z,63.57
2023-04-16T05:29:24.960Z,63.14
2023-04-16T05:31:52.167Z,62.49
2023-04-16T05:34:18.294Z,62.53
2023-04-16T05:36:44.401Z,62.54
2023-04-16T05:39:10.604Z,62.64
2023-04-16T05:41:36.828Z,62.15
2023-04-16T05:44:02.933Z,61.06
2023-04-16T05:46:29.295Z,62.43
2023-04-16T05:48:55.439Z,63.83
2023-04-16T05:51:21.525Z,62.89
2023-04-16T05:53:47.610Z,62.10
2023-04-16T05:56:13.712Z,61.94
2023-04-16T05:58:39.815Z,61.13
2023-04-16T06:01:05.902Z,60.64
2023-04-16T06:03:32.121Z,60.73
2023-04-16T06:05:58.372Z,60.05
2023-04-16T06:08:24.481Z,59.00
2023-04-16T06:10:50.592Z,58.21
2023-04-16T06:13:16.699Z,58.73
2023-04-16T06:15:42.800Z,59.14
2023-04-16T06:18:09.070Z,57.02
2023-04-16T06:20:35.246Z,58.91
2023-04-16T06:23:01.350Z,60.47
2023-04-16T06:25:27.464Z,61.12
2023-04-16T06:27:53.557Z,59.90
2023-04-16T06:30:19.648Z,60.55
2023-04-16T06:32:45.805Z,59.60
2023-04-16T06:35:11.907Z,58.80
2023-04-16T06:37:38.013Z,59.52
2023-04-16T06:40:04.111Z,58.88
2023-04-16T06:42:30.210Z,58.57
2023-04-16T06:44:56.316Z,58.58
2023-04-16T06:47:22.450Z,59.00
2023-04-16T06:49:48.563Z,58.93
2023-04-16T06:52:14.689Z,58.41
2023-04-16T06:54:40.799Z,58.33
2023-04-16T06:57:06.925Z,58.46
2023-04-16T06:59:33.027Z,56.87
2023-04-16T07:01:59.231Z,55.49
2023-04-16T07:04:25.421Z,57.40
2023-04-16T07:06:51.536Z,56.21
2023-04-16T07:09:17.662Z,55.88
2023-04-16T07:11:43.783Z,54.92
2023-04-16T07:14:09.909Z,53.43
2023-04-16T07:16:36.088Z,52.40
2023-04-16T07:19:02.195Z,51.00
2023-04-16T07:21:28.288Z,49.55
2023-04-16T07:23:54.396Z,49.16
2023-04-16T07:26:20.525Z,48.15
2023-04-16T07:28:46.635Z,47.40
2023-04-16T07:31:12.757Z,48.85
2023-04-16T07:33:38.852Z,48.97
2023-04-16T07:36:04.935Z,49.19
2023-04-16T07:38:31.041Z,48.96
2023-04-16T07:40:57.134Z,46.45
2023-04-16T07:43:23.236Z,47.36
2023-04-16T07:45:49.365Z,45.97
2023-04-16T07:48:15.525Z,44.10
2023-04-16T07:50:41.677Z,43.92
2023-04-16T07:53:07.874Z,44.90
2023-04-16T07:55:34.094Z,43.04
2023-04-16T07:58:00.188Z,41.48
2023-04-16T08:00:26.422Z,41.42
2023-04-16T08:02:52.597Z,42.64
2023-04-16T08:05:18.908Z,46.21
2023-04-16T08:07:45.088Z,49.38
2023-04-16T08:10:11.197Z,49.63
2023-04-16T08:12:37.304Z,50.67
2023-04-16T08:15:03.412Z,51.91
2023-04-16T08:17:29.583Z,52.49
2023-04-16T08:19:55.738Z,53.58
2023-04-16T08:22:21.825Z,53.04
2023-04-16T08:24:47.955Z,54.55
2023-04-16T08:27:18.394Z,53.87
2023-04-16T08:29:45.633Z,56.92
2023-04-16T08:32:11.712Z,54.58
2023-04-16T08:34:37.805Z,55.81
2023-04-16T08:37:03.900Z,54.59
2023-04-16T08:39:30.002Z,55.87
2023-04-16T08:41:56.106Z,52.87
2023-04-16T08:44:22.210Z,54.70
2023-04-16T08:46:48.316Z,53.48
2023-04-16T08:49:14.476Z,51.77
2023-04-16T08:51:40.573Z,53.11
2023-04-16T08:54:06.689Z,51.01
2023-04-16T08:56:32.801Z,52.12
2023-04-16T08:58:58.893Z,49.56
2023-04-16T09:01:25.014Z,52.14
2023-04-16T09:03:51.262Z,52.05
2023-04-16T09:06:17.442Z,49.15
2023-04-16T09:08:43.574Z,46.21
2023-04-16T09:11:09.693Z,46.81
2023-04-16T09:13:35.810Z,44.67
2023-04-16T09:16:01.978Z,45.48
2023-04-16T09:18:28.161Z,44.61
2023-04-16T09:20:54.284Z,44.73
2023-04-16T09:23:20.395Z,46.35
2023-04-16T09:25:46.494Z,45.72
2023-04-16T09:28:12.604Z,43.81
2023-04-16T09:30:38.710Z,42.55
2023-04-16T09:33:04.814Z,41.96
2023-04-16T09:35:30.932Z,40.12
2023-04-16T09:37:57.035Z,39.06
2023-04-16T09:40:23.134Z,39.79
2023-04-16T09:42:49.261Z,39.18
2023-04-16T09:45:15.378Z,37.84
2023-04-16T09:47:41.655Z,37.82
2023-04-16T09:50:07.817Z,39.24
2023-04-16T09:52:33.937Z,41.52
2023-04-16T09:55:00.081Z,42.06
2023-04-16T09:57:26.220Z,41.91
2023-04-16T09:59:52.327Z,44.56
2023-04-16T10:02:18.436Z,43.80
2023-04-16T10:04:44.595Z,43.72
2023-04-16T10:07:10.749Z,45.35
2023-04-16T10:09:36.862Z,45.90
2023-04-16T10:12:02.998Z,46.50
2023-04-16T10:14:29.126Z,44.37
2023-04-16T10:16:55.302Z,44.47
2023-04-16T10:19:21.488Z,42.43
2023-04-16T10:21:47.596Z,43.69
2023-04-16T10:24:13.733Z,44.33
2023-04-16T10:26:39.834Z,44.07
2023-04-16T10:29:05.926Z,45.76
2023-04-16T10:31:32.170Z,45.29
2023-04-16T10:33:58.297Z,46.86
2023-04-16T10:36:24.445Z,45.25
2023-04-16T10:38:50.569Z,43.99
2023-04-16T10:41:16.673Z,43.43
2023-04-16T10:43:42.835Z,45.21
2023-04-16T10:46:08.991Z,45.66
2023-04-16T10:48:42.376Z,43.49
2023-04-16T10:51:15.161Z,42.90
2023-04-16T10:53:41.409Z,43.52
2023-04-16T10:56:07.537Z,41.00
2023-04-16T10:58:33.629Z,39.30
2023-04-16T11:00:59.722Z,38.09
2023-04-16T11:03:26.515Z,37.49
2023-04-16T11:05:52.786Z,39.52
2023-04-16T11:08:18.893Z,39.94
2023-04-16T11:10:45.006Z,40.08
2023-04-16T11:13:11.090Z,40.10
2023-04-16T11:15:37.169Z,41.33
2023-04-16T11:18:03.307Z,42.63
2023-04-16T11:20:29.483Z,42.21
2023-04-16T11:22:55.590Z,42.12
2023-04-16T11:25:21.731Z,42.73
2023-04-16T11:27:47.820Z,44.00
2023-04-16T11:30:13.957Z,42.68
2023-04-16T11:32:40.172Z,43.13
2023-04-16T11:35:06.298Z,43.03
2023-04-16T11:37:32.418Z,42.92
2023-04-16T11:39:58.525Z,44.18
2023-04-16T11:42:24.672Z,46.02
2023-04-16T11:44:50.832Z,45.65
2023-04-16T11:47:17.030Z,43.70
2023-04-16T11:49:43.215Z,44.86
2023-04-16T11:52:09.346Z,45.38
2023-04-16T11:54:35.450Z,44.79
2023-04-16T11:57:01.694Z,46.59
2023-04-16T11:59:27.809Z,45.15
2023-04-16T12:01:53.966Z,43.95
2023-04-16T12:04:20.217Z,43.52
2023-04-16T12:06:46.405Z,44.67
2023-04-16T12:09:12.570Z,45.49
2023-04-16T12:11:38.659Z,45.09
2023-04-16T12:14:04.789Z,44.64
2023-04-16T12:16:30.918Z,43.14
2023-04-16T12:18:57.075Z,42.66
2023-04-16T12:21:23.167Z,43.74
2023-04-16T12:23:49.300Z,44.15
2023-04-16T12:26:15.394Z,42.45
2023-04-16T12:28:41.516Z,43.73
2023-04-16T12:31:07.661Z,43.85
2023-04-16T12:33:33.803Z,43.75
2023-04-16T12:35:59.909Z,44.65
2023-04-16T12:38:26.827Z,45.31
2023-04-16T12:40:53.435Z,44.35
2023-04-16T12:43:19.580Z,45.34
2023-04-16T12:45:45.849Z,45.80
2023-04-16T12:48:11.962Z,47.09
2023-04-16T12:50:38.066Z,47.08
2023-04-16T12:53:04.163Z,47.21
2023-04-16T12:55:30.263Z,45.82
2023-04-16T12:57:56.349Z,46.39
2023-04-16T13:00:22.438Z,45.11
2023-04-16T13:02:48.726Z,45.58
2023-04-16T13:05:14.930Z,46.80
2023-04-16T13:07:41.013Z,47.71
2023-04-16T13:10:07.111Z,48.84
2023-04-16T13:12:33.220Z,46.35
2023-04-16T13:14:59.348Z,46.63
2023-04-16T13:17:25.487Z,48.09
2023-04-16T13:19:51.616Z,46.50
2023-04-16T13:22:17.736Z,45.73
2023-04-16T13:24:43.850Z,46.73
2023-04-16T13:27:09.982Z,47.19
2023-04-16T13:29:36.097Z,48.22
2023-04-16T13:32:02.222Z,48.55
2023-04-16T13:34:28.322Z,47.90
2023-04-16T13:36:54.412Z,48.56
2023-04-16T13:39:20.504Z,48.29
2023-04-16T13:41:46.608Z,48.68
2023-04-16T13:44:12.728Z,48.03
2023-04-16T13:46:38.905Z,47.84
2023-04-16T13:49:05.065Z,48.91
2023-04-16T13:51:31.157Z,48.03
2023-04-16T13:53:57.254Z,48.64
2023-04-16T13:56:23.356Z,47.94
2023-04-16T13:58:49.461Z,46.94
2023-04-16T14:01:15.617Z,48.92
2023-04-16T14:03:42.074Z,46.46
2023-04-16T14:06:08.414Z,47.69
2023-04-16T14:08:34.521Z,46.68
2023-04-16T14:11:00.639Z,45.33
2023-04-16T14:13:26.755Z,46.08
2023-04-16T14:15:52.902Z,46.11
2023-04-16T14:18:19.025Z,46.65
2023-04-16T14:20:45.143Z,47.32
2023-04-16T14:23:11.259Z,48.39
2023-04-16T14:25:37.381Z,48.64
2023-04-16T14:28:03.483Z,48.15
2023-04-16T14:30:29.592Z,48.87
2023-04-16T14:32:55.790Z,48.52
2023-04-16T14:35:21.918Z,47.43
2023-04-16T14:37:48.034Z,47.43
2023-04-16T14:40:14.136Z,47.33
2023-04-16T14:42:40.298Z,47.98
2023-04-16T14:45:06.400Z,46.85
2023-04-16T14:47:32.549Z,48.00
2023-04-16T14:49:58.686Z,47.94
2023-04-16T14:52:24.812Z,48.16
2023-04-16T14:54:50.916Z,48.19
2023-04-16T14:57:17.024Z,47.74
2023-04-16T14:59:43.174Z,46.88
2023-04-16T15:02:09.330Z,47.24
2023-04-16T15:04:35.436Z,47.69
2023-04-16T15:07:01.560Z,46.92
2023-04-16T15:09:27.691Z,48.45
2023-04-16T15:11:53.811Z,47.55
2023-04-16T15:14:19.961Z,47.46
2023-04-16T15:16:46.090Z,46.91
2023-04-16T15:19:12.465Z,48.07
2023-04-16T15:21:38.681Z,48.89
2023-04-16T15:24:04.789Z,50.46
2023-04-16T15:26:30.903Z,50.44
2023-04-16T15:28:57.034Z,50.17
2023-04-16T15:31:23.235Z,49.78
2023-04-16T15:33:49.383Z,49.83
2023-04-16T15:36:15.494Z,49.31
2023-04-16T15:38:41.599Z,48.84
2023-04-16T15:41:07.718Z,48.56
2023-04-16T15:43:33.834Z,47.78
2023-04-16T15:45:59.985Z,48.38
2023-04-16T15:48:26.142Z,49.34
2023-04-16T15:50:52.254Z,49.15
2023-04-16T15:53:18.362Z,49.12
2023-04-16T15:55:44.462Z,49.76
2023-04-16T15:58:10.582Z,50.31
2023-04-16T16:00:36.693Z,50.58
2023-04-16T16:03:02.951Z,50.82
2023-04-16T16:05:29.152Z,51.06
2023-04-16T16:07:55.289Z,50.56
2023-04-16T16:10:21.396Z,50.05
2023-04-16T16:12:47.478Z,49.94
2023-04-16T16:15:13.603Z,51.26
2023-04-16T16:17:39.757Z,51.23
2023-04-16T16:20:05.872Z,51.48
2023-04-16T16:22:32.051Z,50.48
2023-04-16T16:24:58.238Z,51.22
2023-04-16T16:27:24.321Z,50.99
2023-04-16T16:29:50.414Z,52.23
2023-04-16T16:32:16.533Z,52.08
2023-04-16T16:34:42.641Z,51.52
2023-04-16T16:37:08.755Z,52.82
2023-04-16T16:39:36.558Z,52.36
2023-04-16T16:42:04.046Z,53.13
2023-04-16T16:44:30.146Z,53.00
2023-04-16T16:46:56.287Z,53.32
2023-04-16T16:49:22.458Z,52.59
2023-04-16T16:51:48.555Z,51.90
2023-04-16T16:54:14.650Z,51.89
2023-04-16T16:56:40.834Z,52.21
2023-04-16T16:59:06.947Z,52.13
2023-04-16T17:01:33.187Z,53.44
2023-04-16T17:03:59.429Z,53.71
2023-04-16T17:06:25.660Z,53.68
2023-04-16T17:08:51.796Z,53.71
2023-04-16T17:11:17.879Z,53.45
2023-04-16T17:13:43.990Z,53.59
2023-04-16T17:16:10.141Z,53.52
2023-04-16T17:18:36.261Z,54.52
2023-04-16T17:21:02.367Z,53.36
2023-04-16T17:23:28.523Z,53.84
2023-04-16T17:25:54.626Z,54.27
2023-04-16T17:28:20.714Z,54.42
2023-04-16T17:30:46.812Z,54.74
2023-04-16T17:33:12.950Z,54.29
2023-04-16T17:35:39.112Z,53.96
2023-04-16T17:38:05.203Z,53.32
2023-04-16T17:40:31.323Z,53.11
2023-04-16T17:42:57.445Z,53.26
2023-04-16T17:45:23.615Z,51.72
2023-04-16T17:47:49.778Z,52.17
2023-04-16T17:50:15.908Z,50.77
2023-04-16T17:52:42.055Z,50.63
2023-04-16T17:55:08.182Z,50.92
2023-04-16T17:57:34.326Z,50.00
2023-04-16T18:00:00.460Z,50.52
2023-04-16T18:02:26.798Z,50.74
2023-04-16T18:04:53.185Z,50.59
2023-04-16T18:07:19.429Z,50.53
2023-04-16T18:09:45.538Z,50.37
2023-04-16T18:12:11.669Z,49.46
2023-04-16T18:14:37.762Z,50.72
2023-04-16T18:17:06.176Z,53.20
2023-04-16T18:19:32.647Z,54.36
2023-04-16T18:21:58.752Z,54.40
2023-04-16T18:24:24.923Z,53.01
2023-04-16T18:26:51.035Z,51.76
2023-04-16T18:29:18.127Z,51.77
2023-04-16T18:31:44.461Z,52.83
2023-04-16T18:34:10.645Z,53.95
2023-04-16T18:36:36.769Z,55.07
2023-04-16T18:39:02.935Z,54.35
2023-04-16T18:41:29.076Z,53.74
2023-04-16T18:43:55.230Z,55.33
2023-04-16T18:46:21.372Z,54.46
2023-04-16T18:48:47.485Z,56.78
2023-04-16T18:51:15.560Z,55.63
2023-04-16T18:53:42.588Z,54.80
2023-04-16T18:56:08.702Z,55.09
2023-04-16T18:58:34.793Z,55.52
2023-04-16T19:01:01.042Z,56.37
2023-04-16T19:03:27.296Z,56.58
2023-04-16T19:05:53.500Z,55.85
2023-04-16T19:08:19.596Z,56.39
2023-04-16T19:10:45.715Z,56.50
2023-04-16T19:13:11.826Z,56.53
2023-04-16T19:15:37.918Z,57.14
2023-04-16T19:18:04.027Z,58.20
2023-04-16T19:20:30.137Z,56.94
2023-04-16T19:22:56.231Z,55.75
2023-04-16T19:25:22.344Z,57.33
2023-04-16T19:27:48.478Z,56.39
2023-04-16T19:30:14.592Z,56.37
2023-04-16T19:32:40.777Z,56.12
2023-04-16T19:35:06.917Z,57.16
2023-04-16T19:37:33.020Z,55.70
2023-04-16T19:39:59.106Z,55.82
2023-04-16T19:42:25.223Z,56.10
2023-04-16T19:44:51.347Z,56.31
2023-04-16T19:47:17.434Z,55.17
2023-04-16T19:49:43.560Z,54.18
2023-04-16T19:52:09.660Z,54.58
2023-04-16T19:54:35.789Z,54.40
2023-04-16T19:57:01.887Z,54.36
2023-04-16T19:59:28.071Z,54.07
2023-04-16T20:01:54.182Z,54.65
2023-04-16T20:04:20.303Z,54.99
2023-04-16T20:06:46.448Z,54.48
2023-04-16T20:09:12.759Z,53.79
2023-04-16T20:11:38.985Z,53.35
2023-04-16T20:14:05.090Z,54.08
2023-04-16T20:16:31.242Z,55.14
2023-04-16T20:18:57.396Z,55.94
2023-04-16T20:21:23.520Z,55.38
2023-04-16T20:23:49.617Z,54.85
2023-04-16T20:26:15.719Z,54.70
2023-04-16T20:28:41.808Z,54.68
2023-04-16T20:31:07.941Z,54.69
2023-04-16T20:33:34.087Z,54.27
2023-04-16T20:36:00.241Z,54.13
2023-04-16T20:38:26.380Z,53.77
2023-04-16T20:40:52.501Z,54.01
2023-04-16T20:43:18.610Z,54.89
2023-04-16T20:45:44.743Z,54.42
2023-04-16T20:48:10.968Z,54.35
2023-04-16T20:50:37.100Z,54.12
2023-04-16T20:53:03.246Z,54.09
2023-04-16T20:55:29.330Z,53.58
2023-04-16T20:57:55.457Z,54.12
2023-04-16T21:00:21.565Z,55.36
2023-04-16T21:02:47.790Z,55.64
2023-04-16T21:05:13.981Z,55.13
2023-04-16T21:07:40.104Z,55.37
2023-04-16T21:10:06.233Z,55.89
2023-04-16T21:12:32.337Z,55.76
2023-04-16T21:14:58.439Z,55.91
2023-04-16T21:17:24.565Z,56.21
2023-04-16T21:19:50.686Z,56.70
2023-04-16T21:22:16.778Z,56.30
2023-04-16T21:24:42.902Z,56.63
2023-04-16T21:27:09.007Z,56.56
2023-04-16T21:29:35.122Z,56.88
2023-04-16T21:32:01.328Z,57.02
2023-04-16T21:34:27.606Z,57.39
2023-04-16T21:36:53.761Z,57.40
2023-04-16T21:39:19.876Z,57.17
2023-04-16T21:41:46.072Z,57.00
2023-04-16T21:44:12.193Z,57.11
2023-04-16T21:46:38.348Z,57.18
2023-04-16T21:49:04.456Z,57.42
2023-04-16T21:51:30.643Z,57.78
2023-04-16T21:53:56.727Z,57.52
2023-04-16T21:56:22.808Z,58.13
2023-04-16T21:58:48.903Z,58.53
2023-04-16T22:01:15.079Z,58.51
2023-04-16T22:03:43.388Z,58.81
2023-04-16T22:06:09.549Z,59.26
2023-04-16T22:08:35.667Z,58.63
2023-04-16T22:11:02.077Z,58.64
2023-04-16T22:13:28.279Z,58.63
2023-04-16T22:15:54.376Z,58.48
2023-04-16T22:18:20.512Z,58.60
2023-04-16T22:20:46.641Z,58.76
2023-04-16T22:23:12.797Z,58.68
2023-04-16T22:25:38.908Z,58.82
2023-04-16T22:28:05.052Z,58.55
2023-04-16T22:30:31.157Z,58.91
2023-04-16T22:32:59.593Z,58.82
2023-04-16T22:35:25.716Z,59.06
2023-04-16T22:37:51.802Z,58.49
2023-04-16T22:40:17.944Z,59.04
2023-04-16T22:42:44.062Z,59.25
2023-04-16T22:45:10.166Z,59.31
2023-04-16T22:47:36.360Z,59.88
2023-04-16T22:50:02.517Z,60.81
2023-04-16T22:52:28.628Z,60.48
2023-04-16T22:54:54.732Z,61.16
2023-04-16T22:57:20.855Z,60.76
2023-04-16T22:59:46.978Z,61.11
2023-04-16T23:02:13.126Z,61.10
2023-04-16T23:04:39.242Z,60.79
2023-04-16T23:07:05.378Z,61.63
2023-04-16T23:09:31.475Z,61.66
2023-04-16T23:11:57.601Z,60.84
2023-04-16T23:14:23.732Z,60.78
2023-04-16T23:16:49.851Z,61.20
2023-04-16T23:19:16.162Z,61.48
2023-04-16T23:21:42.260Z,61.58
2023-04-16T23:24:08.372Z,61.65
2023-04-16T23:26:34.490Z,61.45
2023-04-16T23:29:00.630Z,61.18
2023-04-16T23:31:26.765Z,60.53
2023-04-16T23:33:52.899Z,60.63
2023-04-16T23:36:18.998Z,60.01
2023-04-16T23:38:45.141Z,60.29
2023-04-16T23:41:11.228Z,59.89
2023-04-16T23:43:37.348Z,60.05
2023-04-16T23:46:03.547Z,59.67
2023-04-16T23:48:29.738Z,59.53
2023-04-16T23:50:55.841Z,58.98
2023-04-16T23:53:21.956Z,58.71
2023-04-16T23:55:48.053Z,61.42
2023-04-16T23:58:14.160Z,61.55
